sensor_id;sensor_type;location;lat;lon;timestamp;temperature;humidity
21244;DHT22;10780;50.942;4.028;2022-08-02T00:01:41;21.30;99.90
21244;DHT22;10780;50.942;4.028;2022-08-02T00:04:07;21.20;99.90
21244;DHT22;10780;50.942;4.028;2022-08-02T00:06:33;21.10;99.90
21244;DHT22;10780;50.942;4.028;2022-08-02T00:08:59;21.00;99.90
21244;DHT22;10780;50.942;4.028;2022-08-02T00:11:25;20.90;99.90
21244;DHT22;10780;50.942;4.028;2022-08-02T00:13:50;21.00;99.90
21244;DHT22;10780;50.942;4.028;2022-08-02T00:16:16;21.00;99.90
21244;DHT22;10780;50.942;4.028;2022-08-02T00:18:42;21.00;99.90
21244;DHT22;10780;50.942;4.028;2022-08-02T00:21:08;20.90;99.90
21244;DHT22;10780;50.942;4.028;2022-08-02T00:23:34;20.90;99.90
21244;DHT22;10780;50.942;4.028;2022-08-02T00:25:59;20.90;99.90
21244;DHT22;10780;50.942;4.028;2022-08-02T00:28:25;20.90;99.90
21244;DHT22;10780;50.942;4.028;2022-08-02T00:30:51;20.90;99.90
21244;DHT22;10780;50.942;4.028;2022-08-02T00:33:17;20.90;99.90
21244;DHT22;10780;50.942;4.028;2022-08-02T00:35:43;20.90;99.90
21244;DHT22;10780;50.942;4.028;2022-08-02T00:38:11;20.80;99.90
21244;DHT22;10780;50.942;4.028;2022-08-02T00:40:38;20.80;99.90
21244;DHT22;10780;50.942;4.028;2022-08-02T00:43:05;20.80;99.90
21244;DHT22;10780;50.942;4.028;2022-08-02T00:45:36;20.70;99.90
21244;DHT22;10780;50.942;4.028;2022-08-02T00:48:03;20.70;99.90
21244;DHT22;10780;50.942;4.028;2022-08-02T00:50:29;20.70;99.90
21244;DHT22;10780;50.942;4.028;2022-08-02T00:52:56;20.70;99.90
21244;DHT22;10780;50.942;4.028;2022-08-02T00:55:22;20.80;99.90
21244;DHT22;10780;50.942;4.028;2022-08-02T00:57:48;20.80;99.90
21244;DHT22;10780;50.942;4.028;2022-08-02T01:00:14;20.80;99.90
21244;DHT22;10780;50.942;4.028;2022-08-02T01:02:40;20.80;99.90
21244;DHT22;10780;50.942;4.028;2022-08-02T01:05:06;20.80;99.90
21244;DHT22;10780;50.942;4.028;2022-08-02T01:07:32;20.80;99.90
21244;DHT22;10780;50.942;4.028;2022-08-02T01:09:58;20.90;99.90
21244;DHT22;10780;50.942;4.028;2022-08-02T01:12:24;21.00;99.90
21244;DHT22;10780;50.942;4.028;2022-08-02T01:14:51;21.00;99.90
21244;DHT22;10780;50.942;4.028;2022-08-02T01:19:50;21.00;99.90
21244;DHT22;10780;50.942;4.028;2022-08-02T01:22:37;21.00;99.90
21244;DHT22;10780;50.942;4.028;2022-08-02T01:25:19;21.00;99.90
21244;DHT22;10780;50.942;4.028;2022-08-02T01:30:37;21.10;99.90
21244;DHT22;10780;50.942;4.028;2022-08-02T01:33:05;21.10;99.90
21244;DHT22;10780;50.942;4.028;2022-08-02T01:35:37;21.10;99.90
21244;DHT22;10780;50.942;4.028;2022-08-02T01:38:17;21.20;99.90
21244;DHT22;10780;50.942;4.028;2022-08-02T01:40:48;21.20;99.90
21244;DHT22;10780;50.942;4.028;2022-08-02T01:43:16;21.30;99.90
21244;DHT22;10780;50.942;4.028;2022-08-02T01:45:45;21.20;99.90
21244;DHT22;10780;50.942;4.028;2022-08-02T01:48:14;21.10;99.90
21244;DHT22;10780;50.942;4.028;2022-08-02T01:50:41;21.30;99.90
21244;DHT22;10780;50.942;4.028;2022-08-02T01:53:09;21.20;99.90
21244;DHT22;10780;50.942;4.028;2022-08-02T01:55:45;21.10;99.90
21244;DHT22;10780;50.942;4.028;2022-08-02T01:58:13;20.90;99.90
21244;DHT22;10780;50.942;4.028;2022-08-02T02:00:41;20.90;99.90
21244;DHT22;10780;50.942;4.028;2022-08-02T02:03:11;20.80;99.90
21244;DHT22;10780;50.942;4.028;2022-08-02T02:05:38;21.00;99.90
21244;DHT22;10780;50.942;4.028;2022-08-02T02:08:05;21.10;99.90
21244;DHT22;10780;50.942;4.028;2022-08-02T02:10:34;21.00;99.90
21244;DHT22;10780;50.942;4.028;2022-08-02T02:13:05;21.00;99.90
21244;DHT22;10780;50.942;4.028;2022-08-02T02:15:32;20.80;99.90
21244;DHT22;10780;50.942;4.028;2022-08-02T02:17:59;20.80;99.90
21244;DHT22;10780;50.942;4.028;2022-08-02T02:20:26;20.80;99.90
21244;DHT22;10780;50.942;4.028;2022-08-02T02:22:52;20.80;99.90
21244;DHT22;10780;50.942;4.028;2022-08-02T02:25:19;20.80;99.90
21244;DHT22;10780;50.942;4.028;2022-08-02T02:27:54;20.80;99.90
21244;DHT22;10780;50.942;4.028;2022-08-02T02:30:22;20.60;99.90
21244;DHT22;10780;50.942;4.028;2022-08-02T02:32:52;20.50;99.90
21244;DHT22;10780;50.942;4.028;2022-08-02T02:35:20;20.50;99.90
21244;DHT22;10780;50.942;4.028;2022-08-02T02:37:47;20.40;99.90
21244;DHT22;10780;50.942;4.028;2022-08-02T02:40:15;20.40;99.90
21244;DHT22;10780;50.942;4.028;2022-08-02T02:42:43;20.40;99.90
21244;DHT22;10780;50.942;4.028;2022-08-02T02:45:09;20.40;99.90
21244;DHT22;10780;50.942;4.028;2022-08-02T02:47:36;20.40;99.90
21244;DHT22;10780;50.942;4.028;2022-08-02T02:50:02;20.30;99.90
21244;DHT22;10780;50.942;4.028;2022-08-02T02:52:28;20.30;99.90
21244;DHT22;10780;50.942;4.028;2022-08-02T02:54:54;20.30;99.90
21244;DHT22;10780;50.942;4.028;2022-08-02T02:57:21;20.30;99.90
21244;DHT22;10780;50.942;4.028;2022-08-02T02:59:47;20.40;99.90
21244;DHT22;10780;50.942;4.028;2022-08-02T03:02:13;20.40;99.90
21244;DHT22;10780;50.942;4.028;2022-08-02T03:04:43;20.40;99.90
21244;DHT22;10780;50.942;4.028;2022-08-02T03:07:09;20.40;99.90
21244;DHT22;10780;50.942;4.028;2022-08-02T03:09:35;20.30;99.90
21244;DHT22;10780;50.942;4.028;2022-08-02T03:12:01;20.40;99.90
21244;DHT22;10780;50.942;4.028;2022-08-02T03:14:28;20.50;99.90
21244;DHT22;10780;50.942;4.028;2022-08-02T03:16:54;20.50;99.90
21244;DHT22;10780;50.942;4.028;2022-08-02T03:19:21;20.50;99.90
21244;DHT22;10780;50.942;4.028;2022-08-02T03:21:48;20.40;99.90
21244;DHT22;10780;50.942;4.028;2022-08-02T03:24:14;20.40;99.90
21244;DHT22;10780;50.942;4.028;2022-08-02T03:26:40;20.40;99.90
21244;DHT22;10780;50.942;4.028;2022-08-02T03:29:07;20.30;99.90
21244;DHT22;10780;50.942;4.028;2022-08-02T03:31:33;20.30;99.90
21244;DHT22;10780;50.942;4.028;2022-08-02T03:34:00;20.10;99.90
21244;DHT22;10780;50.942;4.028;2022-08-02T03:36:29;20.10;99.90
21244;DHT22;10780;50.942;4.028;2022-08-02T03:38:56;20.00;99.90
21244;DHT22;10780;50.942;4.028;2022-08-02T03:41:23;20.10;99.90
21244;DHT22;10780;50.942;4.028;2022-08-02T03:43:49;20.10;99.90
21244;DHT22;10780;50.942;4.028;2022-08-02T03:46:18;20.20;99.90
21244;DHT22;10780;50.942;4.028;2022-08-02T03:48:46;20.20;99.90
21244;DHT22;10780;50.942;4.028;2022-08-02T03:51:13;20.10;99.90
21244;DHT22;10780;50.942;4.028;2022-08-02T03:53:39;20.20;99.90
21244;DHT22;10780;50.942;4.028;2022-08-02T03:56:05;20.10;99.90
21244;DHT22;10780;50.942;4.028;2022-08-02T03:58:32;20.00;99.90
21244;DHT22;10780;50.942;4.028;2022-08-02T04:00:58;19.90;99.90
21244;DHT22;10780;50.942;4.028;2022-08-02T04:03:24;19.80;99.90
21244;DHT22;10780;50.942;4.028;2022-08-02T04:05:50;19.70;99.90
21244;DHT22;10780;50.942;4.028;2022-08-02T04:08:16;19.60;99.90
21244;DHT22;10780;50.942;4.028;2022-08-02T04:10:41;19.50;99.90
21244;DHT22;10780;50.942;4.028;2022-08-02T04:13:35;19.40;99.90
21244;DHT22;10780;50.942;4.028;2022-08-02T04:16:23;19.30;99.90
21244;DHT22;10780;50.942;4.028;2022-08-02T04:18:55;19.30;99.90
21244;DHT22;10780;50.942;4.028;2022-08-02T04:21:26;19.30;99.90
21244;DHT22;10780;50.942;4.028;2022-08-02T04:23:52;19.20;99.90
21244;DHT22;10780;50.942;4.028;2022-08-02T04:26:19;19.10;99.90
21244;DHT22;10780;50.942;4.028;2022-08-02T04:28:45;19.20;99.90
21244;DHT22;10780;50.942;4.028;2022-08-02T04:31:14;19.10;99.90
21244;DHT22;10780;50.942;4.028;2022-08-02T04:33:41;19.10;99.90
21244;DHT22;10780;50.942;4.028;2022-08-02T04:36:07;19.00;99.90
21244;DHT22;10780;50.942;4.028;2022-08-02T04:38:33;19.00;99.90
21244;DHT22;10780;50.942;4.028;2022-08-02T04:40:59;19.00;99.90
21244;DHT22;10780;50.942;4.028;2022-08-02T04:43:24;19.00;99.90
21244;DHT22;10780;50.942;4.028;2022-08-02T04:45:51;19.00;99.90
21244;DHT22;10780;50.942;4.028;2022-08-02T04:48:19;19.00;99.90
21244;DHT22;10780;50.942;4.028;2022-08-02T04:50:45;19.00;99.90
21244;DHT22;10780;50.942;4.028;2022-08-02T04:53:10;19.00;99.90
21244;DHT22;10780;50.942;4.028;2022-08-02T04:55:36;19.00;99.90
21244;DHT22;10780;50.942;4.028;2022-08-02T04:58:02;19.10;99.90
21244;DHT22;10780;50.942;4.028;2022-08-02T05:00:28;19.00;99.90
21244;DHT22;10780;50.942;4.028;2022-08-02T05:02:58;19.00;99.90
21244;DHT22;10780;50.942;4.028;2022-08-02T05:05:25;19.10;99.90
21244;DHT22;10780;50.942;4.028;2022-08-02T05:07:51;19.10;99.90
21244;DHT22;10780;50.942;4.028;2022-08-02T05:10:17;19.20;99.90
21244;DHT22;10780;50.942;4.028;2022-08-02T05:12:42;19.30;99.90
21244;DHT22;10780;50.942;4.028;2022-08-02T05:15:10;19.30;99.90
21244;DHT22;10780;50.942;4.028;2022-08-02T05:17:36;19.40;99.90
21244;DHT22;10780;50.942;4.028;2022-08-02T05:20:03;19.40;99.90
21244;DHT22;10780;50.942;4.028;2022-08-02T05:22:29;19.40;99.90
21244;DHT22;10780;50.942;4.028;2022-08-02T05:24:54;19.50;99.90
21244;DHT22;10780;50.942;4.028;2022-08-02T05:27:20;19.50;99.90
21244;DHT22;10780;50.942;4.028;2022-08-02T05:29:45;19.50;99.90
21244;DHT22;10780;50.942;4.028;2022-08-02T05:32:11;19.50;99.90
21244;DHT22;10780;50.942;4.028;2022-08-02T05:34:37;19.60;99.90
21244;DHT22;10780;50.942;4.028;2022-08-02T05:37:02;19.60;99.90
21244;DHT22;10780;50.942;4.028;2022-08-02T05:39:28;19.70;99.90
21244;DHT22;10780;50.942;4.028;2022-08-02T05:41:54;19.70;99.90
21244;DHT22;10780;50.942;4.028;2022-08-02T05:44:19;19.80;99.90
21244;DHT22;10780;50.942;4.028;2022-08-02T05:46:45;19.90;99.90
21244;DHT22;10780;50.942;4.028;2022-08-02T05:49:10;20.00;99.90
21244;DHT22;10780;50.942;4.028;2022-08-02T05:52:23;20.00;99.90
21244;DHT22;10780;50.942;4.028;2022-08-02T05:54:39;19.80;99.90
21244;DHT22;10780;50.942;4.028;2022-08-02T05:57:16;19.90;99.90
21244;DHT22;10780;50.942;4.028;2022-08-02T06:00:04;20.10;99.90
21244;DHT22;10780;50.942;4.028;2022-08-02T06:05:26;20.40;99.90
21244;DHT22;10780;50.942;4.028;2022-08-02T06:07:54;20.40;99.90
21244;DHT22;10780;50.942;4.028;2022-08-02T06:10:20;20.40;99.90
21244;DHT22;10780;50.942;4.028;2022-08-02T06:12:50;20.50;99.90
21244;DHT22;10780;50.942;4.028;2022-08-02T06:15:17;20.60;99.90
21244;DHT22;10780;50.942;4.028;2022-08-02T06:17:43;20.70;99.90
21244;DHT22;10780;50.942;4.028;2022-08-02T06:20:12;20.70;99.90
21244;DHT22;10780;50.942;4.028;2022-08-02T06:22:42;20.70;99.90
21244;DHT22;10780;50.942;4.028;2022-08-02T06:25:10;20.60;99.90
21244;DHT22;10780;50.942;4.028;2022-08-02T06:27:38;20.50;99.90
21244;DHT22;10780;50.942;4.028;2022-08-02T06:30:04;20.60;99.90
21244;DHT22;10780;50.942;4.028;2022-08-02T06:32:32;20.70;99.90
21244;DHT22;10780;50.942;4.028;2022-08-02T06:34:59;20.70;99.90
21244;DHT22;10780;50.942;4.028;2022-08-02T06:37:44;20.70;99.90
21244;DHT22;10780;50.942;4.028;2022-08-02T06:40:26;20.70;99.90
21244;DHT22;10780;50.942;4.028;2022-08-02T06:43:17;20.70;99.90
21244;DHT22;10780;50.942;4.028;2022-08-02T06:45:46;20.60;99.90
21244;DHT22;10780;50.942;4.028;2022-08-02T06:48:12;20.50;99.90
21244;DHT22;10780;50.942;4.028;2022-08-02T06:50:38;20.50;99.90
21244;DHT22;10780;50.942;4.028;2022-08-02T06:53:05;20.70;99.90
21244;DHT22;10780;50.942;4.028;2022-08-02T06:55:31;20.90;99.90
21244;DHT22;10780;50.942;4.028;2022-08-02T06:57:57;21.00;99.90
21244;DHT22;10780;50.942;4.028;2022-08-02T07:00:23;21.10;99.90
21244;DHT22;10780;50.942;4.028;2022-08-02T07:02:49;21.00;99.90
21244;DHT22;10780;50.942;4.028;2022-08-02T07:05:15;21.10;99.90
21244;DHT22;10780;50.942;4.028;2022-08-02T07:07:41;21.40;99.90
21244;DHT22;10780;50.942;4.028;2022-08-02T07:10:07;21.30;99.90
21244;DHT22;10780;50.942;4.028;2022-08-02T07:12:34;21.30;99.90
21244;DHT22;10780;50.942;4.028;2022-08-02T07:15:01;21.30;99.90
21244;DHT22;10780;50.942;4.028;2022-08-02T07:17:27;21.40;99.90
21244;DHT22;10780;50.942;4.028;2022-08-02T07:19:54;21.40;99.90
21244;DHT22;10780;50.942;4.028;2022-08-02T07:22:19;21.40;99.90
21244;DHT22;10780;50.942;4.028;2022-08-02T07:24:47;21.50;99.90
21244;DHT22;10780;50.942;4.028;2022-08-02T07:27:13;21.60;99.90
21244;DHT22;10780;50.942;4.028;2022-08-02T07:29:39;21.80;99.90
21244;DHT22;10780;50.942;4.028;2022-08-02T07:32:05;21.80;99.90
21244;DHT22;10780;50.942;4.028;2022-08-02T07:34:31;21.80;99.90
21244;DHT22;10780;50.942;4.028;2022-08-02T07:36:57;21.80;99.90
21244;DHT22;10780;50.942;4.028;2022-08-02T07:39:23;21.80;99.90
21244;DHT22;10780;50.942;4.028;2022-08-02T07:41:48;21.70;99.90
21244;DHT22;10780;50.942;4.028;2022-08-02T07:44:19;21.90;99.90
21244;DHT22;10780;50.942;4.028;2022-08-02T07:46:46;22.10;99.90
21244;DHT22;10780;50.942;4.028;2022-08-02T07:49:12;22.30;99.90
21244;DHT22;10780;50.942;4.028;2022-08-02T07:51:46;22.60;99.90
21244;DHT22;10780;50.942;4.028;2022-08-02T07:54:12;22.70;99.90
21244;DHT22;10780;50.942;4.028;2022-08-02T07:56:37;22.50;99.90
21244;DHT22;10780;50.942;4.028;2022-08-02T07:59:03;22.70;99.90
21244;DHT22;10780;50.942;4.028;2022-08-02T08:01:29;22.80;99.90
21244;DHT22;10780;50.942;4.028;2022-08-02T08:03:55;23.00;99.90
21244;DHT22;10780;50.942;4.028;2022-08-02T08:06:21;23.20;99.90
21244;DHT22;10780;50.942;4.028;2022-08-02T08:08:46;23.30;99.90
21244;DHT22;10780;50.942;4.028;2022-08-02T08:11:12;23.20;99.90
21244;DHT22;10780;50.942;4.028;2022-08-02T08:13:38;23.10;99.90
21244;DHT22;10780;50.942;4.028;2022-08-02T08:16:04;23.10;99.90
21244;DHT22;10780;50.942;4.028;2022-08-02T08:18:30;23.20;99.90
21244;DHT22;10780;50.942;4.028;2022-08-02T08:20:56;23.50;99.90
21244;DHT22;10780;50.942;4.028;2022-08-02T08:23:22;23.80;99.90
21244;DHT22;10780;50.942;4.028;2022-08-02T08:25:48;24.10;99.90
21244;DHT22;10780;50.942;4.028;2022-08-02T08:28:13;24.40;99.90
21244;DHT22;10780;50.942;4.028;2022-08-02T08:30:39;24.40;99.90
21244;DHT22;10780;50.942;4.028;2022-08-02T08:33:06;24.50;99.90
21244;DHT22;10780;50.942;4.028;2022-08-02T08:35:32;24.90;99.90
21244;DHT22;10780;50.942;4.028;2022-08-02T08:37:57;25.10;99.90
21244;DHT22;10780;50.942;4.028;2022-08-02T08:40:24;25.20;99.90
21244;DHT22;10780;50.942;4.028;2022-08-02T08:42:50;25.40;99.90
21244;DHT22;10780;50.942;4.028;2022-08-02T08:45:16;25.30;99.90
21244;DHT22;10780;50.942;4.028;2022-08-02T08:47:42;25.10;99.90
21244;DHT22;10780;50.942;4.028;2022-08-02T08:50:18;24.90;99.90
21244;DHT22;10780;50.942;4.028;2022-08-02T08:53:09;24.80;99.90
21244;DHT22;10780;50.942;4.028;2022-08-02T08:55:36;24.60;99.90
21244;DHT22;10780;50.942;4.028;2022-08-02T08:58:03;24.70;99.90
21244;DHT22;10780;50.942;4.028;2022-08-02T09:00:31;24.70;99.90
21244;DHT22;10780;50.942;4.028;2022-08-02T09:02:57;24.70;99.90
21244;DHT22;10780;50.942;4.028;2022-08-02T09:05:23;25.00;99.90
21244;DHT22;10780;50.942;4.028;2022-08-02T09:07:51;25.00;99.90
21244;DHT22;10780;50.942;4.028;2022-08-02T09:13:11;25.10;99.90
21244;DHT22;10780;50.942;4.028;2022-08-02T09:15:39;24.80;99.90
21244;DHT22;10780;50.942;4.028;2022-08-02T09:18:06;25.00;99.90
21244;DHT22;10780;50.942;4.028;2022-08-02T09:20:33;25.20;99.90
21244;DHT22;10780;50.942;4.028;2022-08-02T09:23:10;25.30;99.90
21244;DHT22;10780;50.942;4.028;2022-08-02T09:25:36;25.30;99.90
21244;DHT22;10780;50.942;4.028;2022-08-02T09:28:05;25.30;99.90
21244;DHT22;10780;50.942;4.028;2022-08-02T09:30:32;25.10;99.90
21244;DHT22;10780;50.942;4.028;2022-08-02T09:33:07;25.40;99.90
21244;DHT22;10780;50.942;4.028;2022-08-02T09:35:35;25.70;99.90
21244;DHT22;10780;50.942;4.028;2022-08-02T09:38:08;26.20;99.90
21244;DHT22;10780;50.942;4.028;2022-08-02T09:40:36;26.60;99.90
21244;DHT22;10780;50.942;4.028;2022-08-02T09:43:02;26.80;99.90
21244;DHT22;10780;50.942;4.028;2022-08-02T09:45:32;26.80;99.90
21244;DHT22;10780;50.942;4.028;2022-08-02T09:48:09;26.30;99.90
21244;DHT22;10780;50.942;4.028;2022-08-02T09:50:36;26.50;99.90
21244;DHT22;10780;50.942;4.028;2022-08-02T09:53:02;26.70;99.90
21244;DHT22;10780;50.942;4.028;2022-08-02T09:55:28;26.80;99.90
21244;DHT22;10780;50.942;4.028;2022-08-02T09:57:54;26.90;99.90
21244;DHT22;10780;50.942;4.028;2022-08-02T10:00:20;26.90;99.90
21244;DHT22;10780;50.942;4.028;2022-08-02T10:03:09;27.50;99.90
21244;DHT22;10780;50.942;4.028;2022-08-02T10:05:52;27.60;99.90
21244;DHT22;10780;50.942;4.028;2022-08-02T10:08:19;27.90;99.90
21244;DHT22;10780;50.942;4.028;2022-08-02T10:10:46;28.40;99.90
21244;DHT22;10780;50.942;4.028;2022-08-02T10:13:13;28.50;99.90
21244;DHT22;10780;50.942;4.028;2022-08-02T10:15:39;28.20;99.90
21244;DHT22;10780;50.942;4.028;2022-08-02T10:18:06;28.00;99.90
21244;DHT22;10780;50.942;4.028;2022-08-02T10:20:39;27.70;99.90
21244;DHT22;10780;50.942;4.028;2022-08-02T10:23:09;27.90;99.90
21244;DHT22;10780;50.942;4.028;2022-08-02T10:25:38;27.70;99.90
21244;DHT22;10780;50.942;4.028;2022-08-02T10:28:07;27.30;99.90
21244;DHT22;10780;50.942;4.028;2022-08-02T10:30:35;27.30;99.90
21244;DHT22;10780;50.942;4.028;2022-08-02T10:33:03;27.50;99.90
21244;DHT22;10780;50.942;4.028;2022-08-02T10:35:32;27.30;99.90
21244;DHT22;10780;50.942;4.028;2022-08-02T10:38:03;27.30;99.90
21244;DHT22;10780;50.942;4.028;2022-08-02T10:43:07;27.10;99.90
21244;DHT22;10780;50.942;4.028;2022-08-02T10:45:33;26.80;99.90
21244;DHT22;10780;50.942;4.028;2022-08-02T10:48:10;27.10;99.90
21244;DHT22;10780;50.942;4.028;2022-08-02T10:55:56;27.10;99.90
21244;DHT22;10780;50.942;4.028;2022-08-02T10:58:24;27.10;99.90
21244;DHT22;10780;50.942;4.028;2022-08-02T11:00:52;27.10;99.90
21244;DHT22;10780;50.942;4.028;2022-08-02T11:06:13;27.30;99.90
21244;DHT22;10780;50.942;4.028;2022-08-02T11:08:39;27.20;99.90
21244;DHT22;10780;50.942;4.028;2022-08-02T11:19:27;27.50;99.90
21244;DHT22;10780;50.942;4.028;2022-08-02T11:22:07;27.50;99.90
21244;DHT22;10780;50.942;4.028;2022-08-02T11:24:38;27.70;99.90
21244;DHT22;10780;50.942;4.028;2022-08-02T11:27:15;27.70;99.90
21244;DHT22;10780;50.942;4.028;2022-08-02T11:29:43;27.90;99.90
21244;DHT22;10780;50.942;4.028;2022-08-02T11:32:20;27.70;99.90
21244;DHT22;10780;50.942;4.028;2022-08-02T11:34:52;27.90;99.90
21244;DHT22;10780;50.942;4.028;2022-08-02T11:37:32;28.10;99.90
21244;DHT22;10780;50.942;4.028;2022-08-02T11:40:00;27.90;99.90
21244;DHT22;10780;50.942;4.028;2022-08-02T11:42:36;27.70;99.90
21244;DHT22;10780;50.942;4.028;2022-08-02T11:45:03;27.60;99.90
21244;DHT22;10780;50.942;4.028;2022-08-02T11:47:29;27.60;99.90
21244;DHT22;10780;50.942;4.028;2022-08-02T11:50:05;27.70;99.90
21244;DHT22;10780;50.942;4.028;2022-08-02T11:52:33;27.70;99.90
21244;DHT22;10780;50.942;4.028;2022-08-02T11:55:00;27.90;99.90
21244;DHT22;10780;50.942;4.028;2022-08-02T11:57:26;28.10;99.90
21244;DHT22;10780;50.942;4.028;2022-08-02T11:59:54;28.40;99.90
21244;DHT22;10780;50.942;4.028;2022-08-02T12:02:22;28.80;99.90
21244;DHT22;10780;50.942;4.028;2022-08-02T12:05:05;29.20;99.90
21244;DHT22;10780;50.942;4.028;2022-08-02T12:07:38;29.30;99.90
21244;DHT22;10780;50.942;4.028;2022-08-02T12:10:06;29.30;99.90
21244;DHT22;10780;50.942;4.028;2022-08-02T12:12:45;29.10;99.90
21244;DHT22;10780;50.942;4.028;2022-08-02T12:15:11;28.60;99.90
21244;DHT22;10780;50.942;4.028;2022-08-02T12:17:37;28.30;99.90
21244;DHT22;10780;50.942;4.028;2022-08-02T12:20:36;28.50;99.90
21244;DHT22;10780;50.942;4.028;2022-08-02T12:23:03;28.70;99.90
21244;DHT22;10780;50.942;4.028;2022-08-02T12:25:29;29.00;99.90
21244;DHT22;10780;50.942;4.028;2022-08-02T12:28:12;29.30;99.90
21244;DHT22;10780;50.942;4.028;2022-08-02T12:31:09;29.20;99.90
21244;DHT22;10780;50.942;4.028;2022-08-02T12:33:52;28.70;99.90
21244;DHT22;10780;50.942;4.028;2022-08-02T12:36:24;28.70;99.90
21244;DHT22;10780;50.942;4.028;2022-08-02T12:38:57;28.90;99.90
21244;DHT22;10780;50.942;4.028;2022-08-02T12:41:23;29.00;99.90
21244;DHT22;10780;50.942;4.028;2022-08-02T12:43:50;29.10;99.90
21244;DHT22;10780;50.942;4.028;2022-08-02T12:46:23;28.90;99.90
21244;DHT22;10780;50.942;4.028;2022-08-02T12:48:49;28.50;99.90
21244;DHT22;10780;50.942;4.028;2022-08-02T12:51:36;28.50;99.90
21244;DHT22;10780;50.942;4.028;2022-08-02T12:54:19;28.90;99.90
21244;DHT22;10780;50.942;4.028;2022-08-02T12:56:46;29.10;99.90
21244;DHT22;10780;50.942;4.028;2022-08-02T12:59:13;29.00;99.90
21244;DHT22;10780;50.942;4.028;2022-08-02T13:01:39;28.90;99.90
21244;DHT22;10780;50.942;4.028;2022-08-02T13:04:05;28.80;99.90
21244;DHT22;10780;50.942;4.028;2022-08-02T13:06:32;28.90;99.90
21244;DHT22;10780;50.942;4.028;2022-08-02T13:08:58;28.90;99.90
21244;DHT22;10780;50.942;4.028;2022-08-02T13:11:24;28.90;99.90
21244;DHT22;10780;50.942;4.028;2022-08-02T13:13:50;29.10;99.90
21244;DHT22;10780;50.942;4.028;2022-08-02T13:16:16;29.30;99.90
21244;DHT22;10780;50.942;4.028;2022-08-02T13:18:41;29.40;99.90
21244;DHT22;10780;50.942;4.028;2022-08-02T13:21:07;29.60;99.90
21244;DHT22;10780;50.942;4.028;2022-08-02T13:23:35;29.70;99.90
21244;DHT22;10780;50.942;4.028;2022-08-02T13:26:02;29.40;99.90
21244;DHT22;10780;50.942;4.028;2022-08-02T13:28:28;29.30;99.90
21244;DHT22;10780;50.942;4.028;2022-08-02T13:30:53;29.60;99.90
21244;DHT22;10780;50.942;4.028;2022-08-02T13:33:19;29.60;99.90
21244;DHT22;10780;50.942;4.028;2022-08-02T13:35:46;29.20;99.90
21244;DHT22;10780;50.942;4.028;2022-08-02T13:38:11;29.40;99.90
21244;DHT22;10780;50.942;4.028;2022-08-02T13:40:37;29.20;99.90
21244;DHT22;10780;50.942;4.028;2022-08-02T13:43:21;29.20;99.90
21244;DHT22;10780;50.942;4.028;2022-08-02T13:45:47;29.50;99.90
21244;DHT22;10780;50.942;4.028;2022-08-02T13:48:12;29.50;99.90
21244;DHT22;10780;50.942;4.028;2022-08-02T13:50:38;29.40;99.90
21244;DHT22;10780;50.942;4.028;2022-08-02T13:53:04;29.60;99.90
21244;DHT22;10780;50.942;4.028;2022-08-02T13:55:29;29.50;99.90
21244;DHT22;10780;50.942;4.028;2022-08-02T13:57:55;29.60;99.90
21244;DHT22;10780;50.942;4.028;2022-08-02T14:00:21;29.70;99.90
21244;DHT22;10780;50.942;4.028;2022-08-02T14:02:47;30.00;99.90
21244;DHT22;10780;50.942;4.028;2022-08-02T14:05:13;30.30;99.90
21244;DHT22;10780;50.942;4.028;2022-08-02T14:07:38;30.30;99.90
21244;DHT22;10780;50.942;4.028;2022-08-02T14:10:04;30.50;99.90
21244;DHT22;10780;50.942;4.028;2022-08-02T14:12:30;30.40;99.90
21244;DHT22;10780;50.942;4.028;2022-08-02T14:14:56;30.60;99.90
21244;DHT22;10780;50.942;4.028;2022-08-02T14:17:21;30.80;99.90
21244;DHT22;10780;50.942;4.028;2022-08-02T14:19:47;30.80;99.90
21244;DHT22;10780;50.942;4.028;2022-08-02T14:22:13;31.30;99.90
21244;DHT22;10780;50.942;4.028;2022-08-02T14:24:39;31.90;99.90
21244;DHT22;10780;50.942;4.028;2022-08-02T14:27:05;31.80;99.90
21244;DHT22;10780;50.942;4.028;2022-08-02T14:29:31;31.70;99.90
21244;DHT22;10780;50.942;4.028;2022-08-02T14:31:57;31.70;99.90
21244;DHT22;10780;50.942;4.028;2022-08-02T14:34:22;32.00;99.90
21244;DHT22;10780;50.942;4.028;2022-08-02T14:36:48;32.00;99.90
21244;DHT22;10780;50.942;4.028;2022-08-02T14:39:13;32.40;99.90
21244;DHT22;10780;50.942;4.028;2022-08-02T14:41:39;33.50;99.90
21244;DHT22;10780;50.942;4.028;2022-08-02T14:44:05;34.50;99.90
21244;DHT22;10780;50.942;4.028;2022-08-02T14:46:36;34.40;99.90
21244;DHT22;10780;50.942;4.028;2022-08-02T14:49:02;34.60;99.90
21244;DHT22;10780;50.942;4.028;2022-08-02T14:51:30;34.60;99.90
21244;DHT22;10780;50.942;4.028;2022-08-02T14:53:57;35.30;99.90
21244;DHT22;10780;50.942;4.028;2022-08-02T14:56:23;35.50;99.90
21244;DHT22;10780;50.942;4.028;2022-08-02T14:58:48;34.70;99.90
21244;DHT22;10780;50.942;4.028;2022-08-02T15:01:14;34.30;99.90
21244;DHT22;10780;50.942;4.028;2022-08-02T15:03:39;34.30;99.90
21244;DHT22;10780;50.942;4.028;2022-08-02T15:06:05;34.00;99.90
21244;DHT22;10780;50.942;4.028;2022-08-02T15:08:31;33.60;99.90
21244;DHT22;10780;50.942;4.028;2022-08-02T15:10:56;33.90;99.90
21244;DHT22;10780;50.942;4.028;2022-08-02T15:13:22;34.20;99.90
21244;DHT22;10780;50.942;4.028;2022-08-02T15:15:47;33.20;99.90
21244;DHT22;10780;50.942;4.028;2022-08-02T15:18:13;32.60;99.90
21244;DHT22;10780;50.942;4.028;2022-08-02T15:20:39;33.10;99.90
21244;DHT22;10780;50.942;4.028;2022-08-02T15:23:05;34.10;99.90
21244;DHT22;10780;50.942;4.028;2022-08-02T15:25:30;34.30;99.90
21244;DHT22;10780;50.942;4.028;2022-08-02T15:27:56;34.70;99.90
21244;DHT22;10780;50.942;4.028;2022-08-02T15:30:22;35.10;99.90
21244;DHT22;10780;50.942;4.028;2022-08-02T15:32:47;34.80;99.90
21244;DHT22;10780;50.942;4.028;2022-08-02T15:35:13;34.40;99.90
21244;DHT22;10780;50.942;4.028;2022-08-02T15:37:39;34.20;99.90
21244;DHT22;10780;50.942;4.028;2022-08-02T15:40:05;34.00;99.90
21244;DHT22;10780;50.942;4.028;2022-08-02T15:42:30;34.80;99.90
21244;DHT22;10780;50.942;4.028;2022-08-02T15:44:56;34.80;99.90
21244;DHT22;10780;50.942;4.028;2022-08-02T15:47:22;35.70;99.90
21244;DHT22;10780;50.942;4.028;2022-08-02T15:49:47;35.90;99.90
21244;DHT22;10780;50.942;4.028;2022-08-02T15:52:14;37.10;99.90
21244;DHT22;10780;50.942;4.028;2022-08-02T15:54:39;38.20;99.90
21244;DHT22;10780;50.942;4.028;2022-08-02T15:57:05;39.10;99.90
21244;DHT22;10780;50.942;4.028;2022-08-02T15:59:31;38.20;99.90
21244;DHT22;10780;50.942;4.028;2022-08-02T16:01:56;38.10;99.90
21244;DHT22;10780;50.942;4.028;2022-08-02T16:04:22;37.30;99.90
21244;DHT22;10780;50.942;4.028;2022-08-02T16:06:47;36.20;99.90